Time;durP1;ratioP1;P1;durP2;ratioP2;P2;SDS_P1;SDS_P2;PMS_P1;PMS_P2;Temp;Humidity;BMP_temperature;BMP_pressure;BME280_temperature;BME280_humidity;BME280_pressure;Samples;Min_cycle;Max_cycle;Signal;HPM_P1;HPM_P2
2021/11/11 00:01:06;;;;;;;124.65;34.75;;;;;;;;;;5071620;28;20024;-57
2021/11/11 00:03:36;;;;;;;113.38;34.35;;;;;;;;;;5090660;27;20036;-58
2021/11/11 00:06:01;;;;;;;109.13;34.50;;;;;;;;;;5065531;28;20936;-58
2021/11/11 00:08:27;;;;;;;102.68;34.92;;;;;;;;;;5077160;28;20051;-59
2021/11/11 00:10:55;;;;;;;100.78;33.45;;;;;;;;;;5073017;28;20044;-59
2021/11/11 00:13:23;;;;;;;95.88;32.22;;;;;;;;;;5071335;28;20112;-59
2021/11/11 00:15:53;;;;;;;109.20;34.75;;;;;;;;;;5055216;28;20039;-58
2021/11/11 00:18:19;;;;;;;104.68;34.63;;;;;;;;;;5062225;28;20039;-58
2021/11/11 00:20:50;;;;;;;115.13;34.70;;;;;;;;;;5074422;28;20043;-57
2021/11/11 00:23:15;;;;;;;104.78;33.88;;;;;;;;;;5057982;28;20562;-58
2021/11/11 00:25:41;;;;;;;113.13;33.83;;;;;;;;;;5077200;28;20046;-58
2021/11/11 00:28:06;;;;;;;110.32;34.45;;;;;;;;;;5072112;28;20034;-57
2021/11/11 00:30:34;;;;;;;107.70;33.95;;;;;;;;;;5074739;28;20051;-58
2021/11/11 00:33:02;;;;;;;106.00;32.97;;;;;;;;;;5073405;28;20043;-56
2021/11/11 00:35:29;;;;;;;113.65;31.95;;;;;;;;;;5075095;28;20102;-59
2021/11/11 00:37:57;;;;;;;112.20;34.30;;;;;;;;;;5052220;28;20035;-58
2021/11/11 00:40:31;;;;;;;106.65;33.22;;;;;;;;;;5074894;28;20055;-58
2021/11/11 00:43:00;;;;;;;105.80;33.13;;;;;;;;;;5073305;28;20133;-58
2021/11/11 00:45:31;;;;;;;93.60;31.40;;;;;;;;;;5070365;28;20035;-57
2021/11/11 00:47:58;;;;;;;91.95;31.90;;;;;;;;;;5073536;28;20047;-58
2021/11/11 00:50:28;;;;;;;91.05;31.40;;;;;;;;;;5072665;27;20031;-58
2021/11/11 00:52:54;;;;;;;101.85;32.20;;;;;;;;;;5071347;28;20055;-59
2021/11/11 00:55:19;;;;;;;97.57;31.20;;;;;;;;;;5059097;28;20071;-59
2021/11/11 00:57:45;;;;;;;99.45;32.00;;;;;;;;;;5075127;28;20418;-58
2021/11/11 01:00:11;;;;;;;95.85;31.50;;;;;;;;;;5073467;28;20144;-57
2021/11/11 01:02:44;;;;;;;91.47;30.90;;;;;;;;;;5074076;28;20070;-58
2021/11/11 01:05:10;;;;;;;81.68;29.92;;;;;;;;;;5072759;28;20128;-56
2021/11/11 01:07:36;;;;;;;87.15;29.17;;;;;;;;;;5080697;28;20039;-58
2021/11/11 01:10:03;;;;;;;96.13;29.95;;;;;;;;;;5074530;28;20047;-58
2021/11/11 01:12:28;;;;;;;97.13;29.92;;;;;;;;;;5075424;28;20035;-57
2021/11/11 01:14:54;;;;;;;83.93;29.95;;;;;;;;;;5075989;28;20078;-58
2021/11/11 01:17:24;;;;;;;94.10;29.20;;;;;;;;;;5074024;28;21032;-57
2021/11/11 01:19:52;;;;;;;75.03;29.88;;;;;;;;;;5073246;28;20023;-59
2021/11/11 01:22:17;;;;;;;80.97;29.55;;;;;;;;;;5062193;28;20035;-58
2021/11/11 01:24:42;;;;;;;80.97;28.80;;;;;;;;;;5075297;28;20062;-58
2021/11/11 01:27:10;;;;;;;70.60;27.00;;;;;;;;;;5073447;28;20059;-58
2021/11/11 01:29:36;;;;;;;85.50;27.63;;;;;;;;;;5073898;28;20590;-59
2021/11/11 01:32:04;;;;;;;78.03;27.40;;;;;;;;;;5075281;28;20036;-59
2021/11/11 01:34:37;;;;;;;82.00;27.50;;;;;;;;;;5083093;27;20031;-57
2021/11/11 01:37:05;;;;;;;72.45;25.90;;;;;;;;;;5077541;28;20043;-60
2021/11/11 01:39:33;;;;;;;70.70;26.38;;;;;;;;;;5078519;28;20028;-58
2021/11/11 01:41:59;;;;;;;73.65;24.77;;;;;;;;;;5078255;28;20047;-59
2021/11/11 01:44:24;;;;;;;69.75;25.63;;;;;;;;;;5077633;28;20024;-60
2021/11/11 01:46:51;;;;;;;69.70;25.05;;;;;;;;;;5075382;28;20613;-58
2021/11/11 01:49:17;;;;;;;63.00;24.48;;;;;;;;;;5077343;28;20043;-59
2021/11/11 01:51:47;;;;;;;88.47;26.25;;;;;;;;;;5066078;28;20049;-59
2021/11/11 01:54:16;;;;;;;69.90;23.90;;;;;;;;;;5083173;28;20071;-60
2021/11/11 01:56:46;;;;;;;68.45;24.90;;;;;;;;;;5076676;28;21986;-59
2021/11/11 01:59:15;;;;;;;80.18;26.67;;;;;;;;;;5075540;28;20098;-59
2021/11/11 02:01:43;;;;;;;79.13;24.08;;;;;;;;;;5077442;28;20107;-59
2021/11/11 02:04:11;;;;;;;80.45;24.08;;;;;;;;;;5078662;28;20028;-59
2021/11/11 02:06:38;;;;;;;67.70;22.92;;;;;;;;;;5077439;28;20026;-58
2021/11/11 02:09:08;;;;;;;67.95;23.52;;;;;;;;;;5061625;28;20081;-59
2021/11/11 02:11:36;;;;;;;55.17;22.20;;;;;;;;;;5078715;28;20532;-57
2021/11/11 02:14:04;;;;;;;64.90;22.13;;;;;;;;;;5062085;28;20054;-60
2021/11/11 02:16:34;;;;;;;75.22;24.02;;;;;;;;;;5060489;28;20038;-59
2021/11/11 02:19:04;;;;;;;63.10;22.77;;;;;;;;;;5064648;28;20032;-58
2021/11/11 02:21:32;;;;;;;59.80;22.90;;;;;;;;;;5078362;28;20092;-59
2021/11/11 02:24:00;;;;;;;58.47;23.08;;;;;;;;;;5059946;28;20035;-59
2021/11/11 02:26:26;;;;;;;71.57;23.13;;;;;;;;;;5078086;28;20035;-60
2021/11/11 02:28:51;;;;;;;63.40;20.88;;;;;;;;;;5059675;28;20040;-59
2021/11/11 02:31:17;;;;;;;63.58;24.63;;;;;;;;;;5075554;27;20039;-59
2021/11/11 02:33:51;;;;;;;66.10;21.73;;;;;;;;;;5081772;28;20135;-59
2021/11/11 02:36:24;;;;;;;75.82;21.88;;;;;;;;;;5056890;28;20558;-59
2021/11/11 02:38:52;;;;;;;65.57;23.42;;;;;;;;;;5073997;27;20032;-58
2021/11/11 02:41:20;;;;;;;70.47;22.67;;;;;;;;;;5093885;27;20032;-59
2021/11/11 02:43:46;;;;;;;62.40;22.95;;;;;;;;;;5078234;28;20035;-58
2021/11/11 02:46:14;;;;;;;74.45;23.35;;;;;;;;;;5082483;27;20104;-59
2021/11/11 02:48:39;;;;;;;68.82;22.13;;;;;;;;;;5079167;28;20027;-57
2021/11/11 02:51:09;;;;;;;63.47;22.20;;;;;;;;;;5079419;28;20040;-60
2021/11/11 02:53:39;;;;;;;72.72;23.55;;;;;;;;;;5073593;28;20047;-59
2021/11/11 02:56:37;;;;;;;66.72;23.27;;;;;;;;;;5075066;28;20036;-58
2021/11/11 02:59:02;;;;;;;67.05;24.38;;;;;;;;;;5090248;27;20024;-59
2021/11/11 03:01:28;;;;;;;66.88;24.20;;;;;;;;;;5074514;28;20028;-59
2021/11/11 03:03:55;;;;;;;73.50;25.30;;;;;;;;;;5075752;28;20585;-58
2021/11/11 03:06:21;;;;;;;70.30;24.73;;;;;;;;;;5089365;27;20047;-60
2021/11/11 03:08:51;;;;;;;68.53;25.58;;;;;;;;;;5058567;28;20051;-58
2021/11/11 03:11:17;;;;;;;72.53;24.38;;;;;;;;;;5062202;28;20048;-59
2021/11/11 03:13:45;;;;;;;75.25;23.98;;;;;;;;;;5076991;28;20046;-58
2021/11/11 03:16:13;;;;;;;66.13;23.80;;;;;;;;;;5065627;28;20066;-58
2021/11/11 03:18:38;;;;;;;66.75;24.60;;;;;;;;;;5075766;28;20024;-60
2021/11/11 03:21:06;;;;;;;85.93;24.00;;;;;;;;;;5077071;28;20089;-57
2021/11/11 03:23:31;;;;;;;70.20;24.42;;;;;;;;;;5077261;28;20050;-58
2021/11/11 03:25:57;;;;;;;71.85;25.38;;;;;;;;;;5075721;28;20036;-57
2021/11/11 03:28:25;;;;;;;77.80;26.10;;;;;;;;;;5077957;28;20060;-58
2021/11/11 03:30:53;;;;;;;66.55;23.00;;;;;;;;;;5082018;28;22055;-58
2021/11/11 03:33:23;;;;;;;74.82;25.52;;;;;;;;;;5077605;28;20620;-58
2021/11/11 03:35:58;;;;;;;78.32;25.10;;;;;;;;;;5075058;27;20035;-58
2021/11/11 03:38:27;;;;;;;74.72;24.58;;;;;;;;;;5075098;28;20130;-58
2021/11/11 03:40:52;;;;;;;69.82;25.15;;;;;;;;;;5074973;27;20111;-57
2021/11/11 03:43:18;;;;;;;73.47;25.67;;;;;;;;;;5075853;28;21174;-59
2021/11/11 03:45:48;;;;;;;64.25;24.30;;;;;;;;;;5075681;27;20031;-57
2021/11/11 03:48:16;;;;;;;74.40;24.83;;;;;;;;;;5074157;28;20028;-57
2021/11/11 03:50:43;;;;;;;69.60;25.20;;;;;;;;;;5075392;28;20040;-57
2021/11/11 03:53:09;;;;;;;87.05;25.15;;;;;;;;;;5076842;28;20036;-57
2021/11/11 03:55:41;;;;;;;73.32;24.70;;;;;;;;;;5076611;28;20044;-58
2021/11/11 03:58:15;;;;;;;73.45;25.52;;;;;;;;;;5080374;28;20031;-58
2021/11/11 04:00:41;;;;;;;69.72;24.33;;;;;;;;;;5073296;28;20135;-59
2021/11/11 04:03:08;;;;;;;72.47;24.25;;;;;;;;;;5076099;28;20020;-57
2021/11/11 04:05:34;;;;;;;72.90;24.88;;;;;;;;;;5074959;27;20066;-57
2021/11/11 04:07:59;;;;;;;76.50;26.52;;;;;;;;;;5072412;28;20038;-57
2021/11/11 04:10:25;;;;;;;82.68;24.38;;;;;;;;;;5074545;28;20490;-57
2021/11/11 04:12:53;;;;;;;72.00;24.73;;;;;;;;;;5076624;28;20032;-58
2021/11/11 04:15:18;;;;;;;83.80;25.85;;;;;;;;;;5075884;28;20036;-58
2021/11/11 04:17:44;;;;;;;84.13;25.33;;;;;;;;;;5082312;28;20070;-57
2021/11/11 04:20:10;;;;;;;70.75;23.95;;;;;;;;;;5077874;28;20490;-57
2021/11/11 04:22:40;;;;;;;78.05;25.92;;;;;;;;;;5078206;28;20035;-59
2021/11/11 04:25:10;;;;;;;68.55;25.55;;;;;;;;;;5078851;28;20110;-58
2021/11/11 04:27:40;;;;;;;65.32;23.13;;;;;;;;;;5074983;27;20463;-58
2021/11/11 04:30:25;;;;;;;81.47;27.50;;;;;;;;;;5075502;28;20046;-59
2021/11/11 04:33:04;;;;;;;67.82;23.42;;;;;;;;;;5067900;28;20028;-59
2021/11/11 04:35:34;;;;;;;75.20;24.48;;;;;;;;;;5077722;28;20118;-57
2021/11/11 04:46:21;;;;;;;79.82;27.20;;;;;;;;;;5074922;28;20074;-58
2021/11/11 05:04:29;;;;;;;68.15;23.63;;;;;;;;;;5080736;28;20051;-59
2021/11/11 05:06:57;;;;;;;82.28;24.42;;;;;;;;;;5073460;28;20156;-58
2021/11/11 05:09:24;;;;;;;78.10;24.15;;;;;;;;;;5060567;28;20782;-59
2021/11/11 05:11:52;;;;;;;70.82;23.63;;;;;;;;;;5075499;28;20647;-59
2021/11/11 05:14:17;;;;;;;65.18;24.38;;;;;;;;;;5074359;28;20646;-61
2021/11/11 05:16:59;;;;;;;77.72;24.40;;;;;;;;;;5076013;28;20114;-60
2021/11/11 05:19:27;;;;;;;83.15;23.88;;;;;;;;;;5077183;28;20064;-58
2021/11/11 05:21:55;;;;;;;79.00;24.45;;;;;;;;;;5062994;28;20040;-59
2021/11/11 05:24:23;;;;;;;74.38;24.10;;;;;;;;;;5066006;28;20024;-62
2021/11/11 05:26:48;;;;;;;71.57;23.88;;;;;;;;;;5077540;28;20130;-57
2021/11/11 05:29:19;;;;;;;71.03;24.27;;;;;;;;;;5078234;28;20035;-56
2021/11/11 05:31:48;;;;;;;81.65;26.33;;;;;;;;;;5076113;28;20032;-58
2021/11/11 05:34:16;;;;;;;84.65;24.70;;;;;;;;;;5080264;28;20027;-57
2021/11/11 05:36:41;;;;;;;89.85;25.75;;;;;;;;;;5080626;28;20039;-59
2021/11/11 05:39:09;;;;;;;66.18;24.17;;;;;;;;;;5071615;28;20033;-58
2021/11/11 05:41:37;;;;;;;77.45;25.08;;;;;;;;;;5074979;28;20028;-58
2021/11/11 05:44:03;;;;;;;85.43;26.92;;;;;;;;;;5071100;28;20032;-57
2021/11/11 05:46:28;;;;;;;90.53;25.98;;;;;;;;;;5077063;28;20044;-58
2021/11/11 05:48:58;;;;;;;79.30;26.88;;;;;;;;;;5079961;28;20039;-57
2021/11/11 05:52:01;;;;;;;76.03;27.60;;;;;;;;;;5074772;28;20570;-57
2021/11/11 05:57:46;;;;;;;82.20;28.42;;;;;;;;;;5074579;28;20091;-57
2021/11/11 06:00:15;;;;;;;86.45;28.70;;;;;;;;;;5074981;28;20032;-58
2021/11/11 06:02:43;;;;;;;76.80;27.90;;;;;;;;;;5078259;28;20032;-58
2021/11/11 06:05:15;;;;;;;84.97;27.80;;;;;;;;;;5074657;28;20864;-58
2021/11/11 06:07:42;;;;;;;89.55;30.00;;;;;;;;;;5073659;28;20050;-58
2021/11/11 06:10:11;;;;;;;80.25;27.55;;;;;;;;;;5075397;28;21067;-57
2021/11/11 06:12:37;;;;;;;86.07;28.15;;;;;;;;;;5075830;28;20030;-57
2021/11/11 06:15:03;;;;;;;88.30;28.50;;;;;;;;;;5075227;28;20031;-58
2021/11/11 06:17:29;;;;;;;90.03;29.05;;;;;;;;;;5074568;28;20055;-58
2021/11/11 06:19:57;;;;;;;87.30;29.30;;;;;;;;;;5079517;28;20032;-56
2021/11/11 06:22:28;;;;;;;84.15;29.02;;;;;;;;;;5079785;27;20138;-57
2021/11/11 06:24:53;;;;;;;81.25;30.70;;;;;;;;;;5062759;28;20039;-57
2021/11/11 06:27:19;;;;;;;91.00;31.33;;;;;;;;;;5081201;27;20044;-57
2021/11/11 06:29:47;;;;;;;88.68;29.45;;;;;;;;;;5063367;28;20039;-57
2021/11/11 06:32:15;;;;;;;99.43;30.95;;;;;;;;;;5080293;28;20040;-59
2021/11/11 06:34:41;;;;;;;93.25;31.17;;;;;;;;;;5068719;28;20623;-57
2021/11/11 06:37:09;;;;;;;102.20;33.08;;;;;;;;;;5077630;28;20024;-58
2021/11/11 06:39:37;;;;;;;88.32;31.95;;;;;;;;;;5078011;27;20031;-58
2021/11/11 06:42:07;;;;;;;108.88;33.53;;;;;;;;;;5069388;27;20092;-57
2021/11/11 06:44:36;;;;;;;111.25;35.85;;;;;;;;;;5077524;27;20032;-57
2021/11/11 06:47:03;;;;;;;95.82;36.22;;;;;;;;;;5066231;28;20474;-59
2021/11/11 06:49:31;;;;;;;101.85;34.55;;;;;;;;;;5076879;28;20031;-57
2021/11/11 06:51:59;;;;;;;99.15;36.58;;;;;;;;;;5078433;28;20035;-57
2021/11/11 06:54:28;;;;;;;96.75;36.03;;;;;;;;;;5076404;28;22062;-58
2021/11/11 06:56:54;;;;;;;100.10;37.50;;;;;;;;;;5064273;28;20108;-58
2021/11/11 06:59:24;;;;;;;93.75;36.75;;;;;;;;;;5076519;28;20024;-58
2021/11/11 07:01:52;;;;;;;119.28;40.60;;;;;;;;;;5078549;28;21499;-58
2021/11/11 07:04:17;;;;;;;114.05;40.80;;;;;;;;;;5077581;28;20109;-57
2021/11/11 07:06:44;;;;;;;112.93;40.20;;;;;;;;;;5077559;28;20038;-58
2021/11/11 07:09:12;;;;;;;113.10;40.85;;;;;;;;;;5078175;27;20035;-58
2021/11/11 07:11:42;;;;;;;110.88;39.40;;;;;;;;;;5079030;28;20039;-58
2021/11/11 07:14:07;;;;;;;107.40;41.17;;;;;;;;;;5083789;28;20046;-58
2021/11/11 07:16:33;;;;;;;114.28;42.13;;;;;;;;;;5078084;27;20024;-57
2021/11/11 07:19:00;;;;;;;104.53;41.95;;;;;;;;;;5077271;27;20050;-57
2021/11/11 07:21:26;;;;;;;127.47;43.20;;;;;;;;;;5066300;28;20115;-57
2021/11/11 07:23:54;;;;;;;105.25;42.42;;;;;;;;;;5071094;28;20686;-60
2021/11/11 07:26:22;;;;;;;110.53;42.97;;;;;;;;;;5079524;28;20036;-58
2021/11/11 07:28:50;;;;;;;117.32;44.53;;;;;;;;;;5079073;28;20042;-60
2021/11/11 07:31:21;;;;;;;121.65;44.05;;;;;;;;;;5077393;28;20146;-58
2021/11/11 07:33:47;;;;;;;114.75;44.13;;;;;;;;;;5078500;28;20031;-60
2021/11/11 07:36:25;;;;;;;118.57;44.80;;;;;;;;;;5085181;28;20119;-58
2021/11/11 07:38:53;;;;;;;104.85;44.17;;;;;;;;;;5076725;28;20112;-59
2021/11/11 07:41:19;;;;;;;112.75;45.08;;;;;;;;;;5079248;28;20051;-61
2021/11/11 07:43:48;;;;;;;103.50;42.50;;;;;;;;;;5079546;28;20028;-60
2021/11/11 07:46:16;;;;;;;126.70;48.55;;;;;;;;;;5061909;28;20035;-59
2021/11/11 07:48:41;;;;;;;117.18;44.00;;;;;;;;;;5077987;27;20035;-59
2021/11/11 07:51:09;;;;;;;122.95;46.40;;;;;;;;;;5076644;28;20055;-59
2021/11/11 07:53:37;;;;;;;115.57;44.92;;;;;;;;;;5079057;28;20036;-59
2021/11/11 07:56:03;;;;;;;104.43;44.05;;;;;;;;;;5078318;28;20167;-59
2021/11/11 07:58:29;;;;;;;102.18;42.05;;;;;;;;;;5078355;28;20118;-59
2021/11/11 08:00:56;;;;;;;103.47;42.33;;;;;;;;;;5077498;28;20046;-58
2021/11/11 08:03:27;;;;;;;117.95;43.60;;;;;;;;;;5066272;28;20485;-59
2021/11/11 08:05:55;;;;;;;106.00;42.35;;;;;;;;;;5063968;28;20036;-61
2021/11/11 08:08:23;;;;;;;95.95;40.75;;;;;;;;;;5075702;28;20039;-58
2021/11/11 08:10:48;;;;;;;96.43;39.58;;;;;;;;;;5076129;28;20050;-59
2021/11/11 08:13:15;;;;;;;86.45;38.90;;;;;;;;;;5077258;28;20032;-59
2021/11/11 08:15:40;;;;;;;84.35;37.88;;;;;;;;;;5074682;28;20039;-58
2021/11/11 08:18:08;;;;;;;94.70;36.83;;;;;;;;;;5078478;28;20039;-59
2021/11/11 08:20:36;;;;;;;89.88;35.72;;;;;;;;;;5082585;28;20121;-60
2021/11/11 08:23:01;;;;;;;87.78;35.72;;;;;;;;;;5078090;27;20028;-59
2021/11/11 08:25:27;;;;;;;81.88;36.15;;;;;;;;;;5062668;28;20046;-58
2021/11/11 08:27:56;;;;;;;90.07;36.47;;;;;;;;;;5065099;28;20034;-59
2021/11/11 08:30:22;;;;;;;85.85;34.00;;;;;;;;;;5078049;28;20092;-59
2021/11/11 08:32:50;;;;;;;88.57;34.55;;;;;;;;;;5082566;28;21278;-59
2021/11/11 08:35:18;;;;;;;78.22;32.17;;;;;;;;;;5075844;28;20173;-58
2021/11/11 08:37:47;;;;;;;79.88;33.85;;;;;;;;;;5083677;27;20036;-60
2021/11/11 08:40:13;;;;;;;89.22;34.03;;;;;;;;;;5074949;28;21053;-60
2021/11/11 08:42:39;;;;;;;83.30;33.03;;;;;;;;;;5076501;28;20167;-59
2021/11/11 08:45:06;;;;;;;81.50;32.85;;;;;;;;;;5074668;28;20031;-59
2021/11/11 08:47:31;;;;;;;75.57;31.48;;;;;;;;;;5076646;28;20644;-59
2021/11/11 08:49:58;;;;;;;81.53;32.00;;;;;;;;;;5074574;28;20047;-59
2021/11/11 08:52:26;;;;;;;77.03;31.30;;;;;;;;;;5076713;28;20032;-58
2021/11/11 08:54:54;;;;;;;85.63;31.17;;;;;;;;;;5077761;28;20047;-59
2021/11/11 08:57:19;;;;;;;78.57;31.60;;;;;;;;;;5076199;28;20043;-59
2021/11/11 08:59:52;;;;;;;76.05;30.90;;;;;;;;;;5076100;28;20032;-60
2021/11/11 09:02:19;;;;;;;80.68;31.10;;;;;;;;;;5075528;28;21025;-60
2021/11/11 09:04:47;;;;;;;80.20;30.67;;;;;;;;;;5076191;28;20036;-58
2021/11/11 09:07:12;;;;;;;78.80;30.48;;;;;;;;;;5075705;28;20118;-59
2021/11/11 09:09:38;;;;;;;80.70;32.00;;;;;;;;;;5073757;28;20151;-59
2021/11/11 09:12:06;;;;;;;87.10;31.85;;;;;;;;;;5076096;28;20031;-60
2021/11/11 09:14:34;;;;;;;97.05;31.90;;;;;;;;;;5076546;28;20042;-58
2021/11/11 09:17:02;;;;;;;76.13;31.67;;;;;;;;;;5075921;28;20035;-59
2021/11/11 09:19:27;;;;;;;73.30;30.20;;;;;;;;;;5075654;28;20847;-58
2021/11/11 09:21:53;;;;;;;73.97;30.23;;;;;;;;;;5075955;28;20084;-58
2021/11/11 09:24:19;;;;;;;81.30;29.45;;;;;;;;;;5074647;28;20023;-58
2021/11/11 09:26:47;;;;;;;83.53;29.15;;;;;;;;;;5076502;28;20047;-58
2021/11/11 09:29:13;;;;;;;74.85;29.02;;;;;;;;;;5071910;28;20063;-58
2021/11/11 09:31:39;;;;;;;82.72;29.13;;;;;;;;;;5075338;28;20476;-58
2021/11/11 09:34:06;;;;;;;80.95;30.98;;;;;;;;;;5081109;28;20046;-60
2021/11/11 09:36:33;;;;;;;86.03;30.85;;;;;;;;;;5078099;28;20421;-58
2021/11/11 09:39:02;;;;;;;85.65;28.92;;;;;;;;;;5077053;28;20135;-59
2021/11/11 09:41:27;;;;;;;83.25;30.70;;;;;;;;;;5074983;28;20020;-58
2021/11/11 09:43:57;;;;;;;75.72;29.98;;;;;;;;;;5066032;28;20036;-57
2021/11/11 09:46:25;;;;;;;84.78;31.75;;;;;;;;;;5076943;28;20127;-59
2021/11/11 09:48:53;;;;;;;84.85;30.20;;;;;;;;;;5080584;28;20041;-58
2021/11/11 09:51:21;;;;;;;81.25;30.65;;;;;;;;;;5066908;28;20052;-58
2021/11/11 09:59:44;;;;;;;82.50;28.83;;;;;;;;;;5083491;28;20027;-58
2021/11/11 10:02:12;;;;;;;70.57;31.33;;;;;;;;;;5078937;28;20541;-58
2021/11/11 10:04:42;;;;;;;78.57;30.55;;;;;;;;;;5078567;28;20032;-59
2021/11/11 10:07:08;;;;;;;73.93;29.15;;;;;;;;;;5079027;28;20028;-57
2021/11/11 10:09:41;;;;;;;69.55;28.70;;;;;;;;;;5079674;28;20082;-58
2021/11/11 10:12:14;;;;;;;66.68;26.42;;;;;;;;;;5077832;27;20028;-58
2021/11/11 10:14:44;;;;;;;60.60;25.30;;;;;;;;;;5077728;28;20028;-58
2021/11/11 10:17:10;;;;;;;68.40;26.75;;;;;;;;;;5081094;28;20463;-58
2021/11/11 10:19:45;;;;;;;62.67;24.52;;;;;;;;;;5084085;28;20901;-59
2021/11/11 10:22:23;;;;;;;58.10;24.45;;;;;;;;;;5081428;28;20028;-58
2021/11/11 10:25:05;;;;;;;55.20;22.92;;;;;;;;;;5079648;28;20034;-58
2021/11/11 10:27:47;;;;;;;54.08;22.25;;;;;;;;;;5080309;28;20028;-59
2021/11/11 10:30:14;;;;;;;59.38;24.20;;;;;;;;;;5068901;28;20024;-59
2021/11/11 10:32:40;;;;;;;57.30;24.88;;;;;;;;;;5070046;28;20035;-59
2021/11/11 10:35:17;;;;;;;61.50;25.58;;;;;;;;;;5076179;28;20078;-59
2021/11/11 10:38:01;;;;;;;53.28;23.08;;;;;;;;;;5096304;27;20046;-59
2021/11/11 10:40:32;;;;;;;61.83;24.25;;;;;;;;;;5080039;28;20028;-59
2021/11/11 10:42:59;;;;;;;54.63;22.98;;;;;;;;;;5075846;28;20852;-59
2021/11/11 10:45:26;;;;;;;47.83;22.60;;;;;;;;;;5063359;28;20146;-59
2021/11/11 10:47:55;;;;;;;58.30;24.08;;;;;;;;;;5072863;27;20082;-59
2021/11/11 10:50:25;;;;;;;50.42;20.58;;;;;;;;;;5076208;28;20023;-59
2021/11/11 10:52:52;;;;;;;48.70;21.15;;;;;;;;;;5058740;28;21347;-59
2021/11/11 10:55:23;;;;;;;48.20;20.70;;;;;;;;;;5075250;27;20051;-60
2021/11/11 10:57:54;;;;;;;48.13;21.02;;;;;;;;;;5077606;27;20054;-59
2021/11/11 11:00:33;;;;;;;43.83;20.95;;;;;;;;;;5076917;28;20035;-58
2021/11/11 11:03:04;;;;;;;47.33;20.70;;;;;;;;;;5062843;28;20116;-59
2021/11/11 11:05:44;;;;;;;45.30;20.48;;;;;;;;;;5079424;27;20035;-57
2021/11/11 11:08:14;;;;;;;45.28;20.00;;;;;;;;;;5079757;27;20032;-58
2021/11/11 11:10:41;;;;;;;44.70;19.48;;;;;;;;;;5078104;28;20038;-57
2021/11/11 11:13:11;;;;;;;45.05;18.85;;;;;;;;;;5077283;27;20036;-58
2021/11/11 11:15:44;;;;;;;39.85;19.20;;;;;;;;;;5074412;28;20040;-58
2021/11/11 11:18:11;;;;;;;43.22;18.52;;;;;;;;;;5079847;28;20103;-58
2021/11/11 11:20:38;;;;;;;44.85;18.98;;;;;;;;;;5075939;27;20106;-59
2021/11/11 11:23:15;;;;;;;43.67;19.45;;;;;;;;;;5075206;28;20031;-59
2021/11/11 11:25:52;;;;;;;36.08;18.55;;;;;;;;;;5076035;28;20024;-59
2021/11/11 11:28:26;;;;;;;42.63;18.67;;;;;;;;;;5080355;28;20032;-57
2021/11/11 11:30:57;;;;;;;45.90;18.58;;;;;;;;;;5075959;28;20032;-58
2021/11/11 11:33:38;;;;;;;45.10;19.83;;;;;;;;;;5077824;28;20035;-58
2021/11/11 11:36:04;;;;;;;43.75;17.98;;;;;;;;;;5075872;28;20047;-58
2021/11/11 11:38:37;;;;;;;42.20;18.58;;;;;;;;;;5078397;28;20110;-59
2021/11/11 11:41:03;;;;;;;44.63;18.85;;;;;;;;;;5078138;28;20031;-59
2021/11/11 11:43:36;;;;;;;45.42;19.27;;;;;;;;;;5077810;27;20023;-58
2021/11/11 11:46:15;;;;;;;43.53;19.02;;;;;;;;;;5077965;28;20096;-58
2021/11/11 11:48:43;;;;;;;42.97;19.77;;;;;;;;;;5072482;27;20039;-58
2021/11/11 11:51:10;;;;;;;42.20;18.58;;;;;;;;;;5072875;27;20126;-59
2021/11/11 11:53:43;;;;;;;36.08;17.10;;;;;;;;;;5075655;27;20595;-59
2021/11/11 11:56:20;;;;;;;36.13;17.05;;;;;;;;;;5076200;27;20043;-58
2021/11/11 11:59:02;;;;;;;35.83;16.98;;;;;;;;;;5062566;28;20040;-58
2021/11/11 12:14:25;;;;;;;33.67;15.38;;;;;;;;;;5075477;27;20043;-58
2021/11/11 12:17:17;;;;;;;36.40;14.80;;;;;;;;;;5075478;28;20038;-58
2021/11/11 12:39:33;;;;;;;30.13;14.90;;;;;;;;;;5077915;28;20036;-59
2021/11/11 12:42:02;;;;;;;32.67;15.10;;;;;;;;;;5074640;28;20047;-60
2021/11/11 12:44:29;;;;;;;35.90;14.55;;;;;;;;;;5075360;28;20055;-60
2021/11/11 12:46:55;;;;;;;31.67;15.38;;;;;;;;;;5057861;28;20120;-59
2021/11/11 12:49:35;;;;;;;28.88;13.50;;;;;;;;;;5073937;28;20466;-59
2021/11/11 12:52:15;;;;;;;24.75;12.18;;;;;;;;;;5083494;28;20083;-59
2021/11/11 12:54:44;;;;;;;24.23;11.90;;;;;;;;;;5074778;28;20047;-60
2021/11/11 12:57:10;;;;;;;22.33;11.55;;;;;;;;;;5078445;28;20043;-58
2021/11/11 12:59:36;;;;;;;23.75;11.13;;;;;;;;;;5079869;28;20059;-59
2021/11/11 13:02:09;;;;;;;25.88;11.85;;;;;;;;;;5081447;28;20158;-58
2021/11/11 13:04:45;;;;;;;31.95;13.65;;;;;;;;;;5073937;28;20028;-59
2021/11/11 13:07:27;;;;;;;26.45;11.32;;;;;;;;;;5064329;28;20035;-59
2021/11/11 13:10:20;;;;;;;30.65;13.00;;;;;;;;;;5056398;28;20032;-59
2021/11/11 13:13:08;;;;;;;27.05;12.40;;;;;;;;;;5075186;28;20040;-60
2021/11/11 13:15:41;;;;;;;31.35;12.05;;;;;;;;;;5073440;28;20036;-60
2021/11/11 13:18:07;;;;;;;26.65;12.55;;;;;;;;;;5064667;28;20028;-60
2021/11/11 13:20:41;;;;;;;26.88;12.25;;;;;;;;;;5073462;28;20024;-59
2021/11/11 13:23:26;;;;;;;23.98;12.23;;;;;;;;;;5074095;28;20028;-59
2021/11/11 13:26:22;;;;;;;22.83;12.20;;;;;;;;;;5063204;28;20081;-59
2021/11/11 15:59:46;;;;;;;138.82;37.30;;;;;;;;;;5077190;27;20035;-59
2021/11/11 16:22:32;;;;;;;131.57;37.63;;;;;;;;;;5046074;28;20052;-59
2021/11/11 16:25:35;;;;;;;122.78;35.92;;;;;;;;;;5078018;28;20104;-59
2021/11/11 16:27:59;;;;;;;137.32;36.92;;;;;;;;;;5077228;28;20114;-59
2021/11/11 16:30:25;;;;;;;141.98;38.38;;;;;;;;;;5074708;28;20035;-60
2021/11/11 16:32:52;;;;;;;125.22;37.63;;;;;;;;;;5058250;28;20039;-59
2021/11/11 16:35:25;;;;;;;128.93;36.58;;;;;;;;;;5074661;28;20035;-60
2021/11/11 16:37:52;;;;;;;127.00;35.60;;;;;;;;;;5076680;28;20028;-60
2021/11/11 16:40:27;;;;;;;125.15;34.78;;;;;;;;;;5076868;28;20036;-57
2021/11/11 16:42:56;;;;;;;122.90;37.20;;;;;;;;;;5075733;28;20111;-59
2021/11/11 16:45:24;;;;;;;117.88;37.72;;;;;;;;;;5077266;28;20070;-60
2021/11/11 16:47:52;;;;;;;124.60;36.85;;;;;;;;;;5078298;28;20043;-59
2021/11/11 16:50:19;;;;;;;133.15;35.42;;;;;;;;;;5072891;28;20110;-60
2021/11/11 16:52:44;;;;;;;111.50;35.85;;;;;;;;;;5076744;28;20031;-59
2021/11/11 16:55:10;;;;;;;116.55;37.20;;;;;;;;;;5077129;28;20116;-58
2021/11/11 16:57:40;;;;;;;126.97;38.50;;;;;;;;;;5078516;28;20117;-59
2021/11/11 17:00:07;;;;;;;127.95;37.05;;;;;;;;;;5066719;28;20027;-59
2021/11/11 17:02:37;;;;;;;145.20;38.10;;;;;;;;;;5058569;28;20027;-60
2021/11/11 17:05:05;;;;;;;121.22;37.17;;;;;;;;;;5076793;28;20020;-59
2021/11/11 17:07:31;;;;;;;133.60;38.90;;;;;;;;;;5072713;28;20043;-59
2021/11/11 17:09:56;;;;;;;131.68;38.75;;;;;;;;;;5077119;28;20039;-60
2021/11/11 17:12:28;;;;;;;124.38;38.60;;;;;;;;;;5073429;28;20036;-59
2021/11/11 17:14:56;;;;;;;130.20;39.90;;;;;;;;;;5077394;28;20401;-61
2021/11/11 17:17:22;;;;;;;126.88;37.30;;;;;;;;;;5076585;28;20043;-59
2021/11/11 17:19:53;;;;;;;127.38;38.17;;;;;;;;;;5075398;28;20677;-59
2021/11/11 17:22:32;;;;;;;136.43;40.45;;;;;;;;;;5082106;28;20097;-59
2021/11/11 17:25:05;;;;;;;131.40;39.97;;;;;;;;;;5077986;28;20024;-60
2021/11/11 17:27:44;;;;;;;146.17;41.80;;;;;;;;;;5078723;28;20024;-61
2021/11/11 17:30:12;;;;;;;145.10;39.65;;;;;;;;;;5076558;28;20024;-60
2021/11/11 17:32:38;;;;;;;146.48;39.22;;;;;;;;;;5074999;28;20057;-59
2021/11/11 17:35:03;;;;;;;141.13;39.88;;;;;;;;;;5076885;28;20046;-59
2021/11/11 17:37:32;;;;;;;146.20;41.50;;;;;;;;;;5073573;28;22156;-60
2021/11/11 17:39:57;;;;;;;133.55;40.00;;;;;;;;;;5061063;28;20571;-60
2021/11/11 17:42:27;;;;;;;143.35;42.67;;;;;;;;;;5077373;28;20028;-61
2021/11/11 17:44:54;;;;;;;146.98;40.20;;;;;;;;;;5064734;28;20130;-59
2021/11/11 17:47:32;;;;;;;129.70;40.92;;;;;;;;;;5076927;28;20111;-59
2021/11/11 17:50:03;;;;;;;132.98;37.63;;;;;;;;;;5059901;28;20065;-59
2021/11/11 17:52:31;;;;;;;137.02;39.65;;;;;;;;;;5076832;28;20035;-59
2021/11/11 17:54:58;;;;;;;135.80;41.13;;;;;;;;;;5062061;28;20044;-59
2021/11/11 17:57:30;;;;;;;126.50;38.65;;;;;;;;;;5090932;27;20036;-60
2021/11/11 17:59:55;;;;;;;126.85;40.08;;;;;;;;;;5075785;28;20039;-58
2021/11/11 18:02:27;;;;;;;128.45;41.38;;;;;;;;;;5061170;28;20043;-58
2021/11/11 18:04:57;;;;;;;133.27;40.55;;;;;;;;;;5074420;28;20040;-59
2021/11/11 18:07:26;;;;;;;141.57;40.28;;;;;;;;;;5077335;28;20032;-59
2021/11/11 18:10:05;;;;;;;121.22;36.75;;;;;;;;;;5072375;28;20060;-59
2021/11/11 18:12:36;;;;;;;119.50;38.15;;;;;;;;;;5076879;28;20156;-59
2021/11/11 18:15:10;;;;;;;110.38;37.08;;;;;;;;;;5081881;28;20043;-59
2021/11/11 18:17:44;;;;;;;118.85;36.83;;;;;;;;;;5067801;28;20114;-59
2021/11/11 18:20:12;;;;;;;129.15;38.53;;;;;;;;;;5080139;28;20046;-59
2021/11/11 18:22:40;;;;;;;131.52;36.97;;;;;;;;;;5062904;28;20090;-59